Assinippi, Massachusetts
Current Conditions -  °F | °C
As of 9:52 AM on Thursday 30 Oct 2014 (Local Time) from KPYM Reporting Station
Clear Clear  
Wind Chill: 51°   Ceiling: Unl
Heat Index: 51°   Visibility: 10mi
Dew Point: 42°   Wind: 9mph
Humidity: 71%   Direction: 290°WNW
Pressure: 29.94"   Gusts: NA
Location:  42.1315°N, 70.8467°W
Report Text: KPYM 301352Z AUTO 29008KT 10SM CLR 11/06 A2994 RMK AO2 SLP139 T01060056
Loading
Personal Weather Stations






























Interactive Weather Map
Tropical Storm Tracking
New forecast layout! Learn more

10-Day Weather Forecast

Advertisements
Track Severe Weather on mobile